sensor_id;sensor_type;location;lat;lon;timestamp;pressure;altitude;pressure_sealevel;temperature;humidity
62103;BME280;48077;48.104;11.702;2023-08-31T00:01:34;94967.47;;;11.02;100.00
62103;BME280;48077;48.104;11.702;2023-08-31T00:07:41;94976.31;;;11.08;100.00
62103;BME280;48077;48.104;11.702;2023-08-31T00:10:05;94963.69;;;10.98;100.00
62103;BME280;48077;48.104;11.702;2023-08-31T00:12:32;94978.16;;;11.02;100.00
62103;BME280;48077;48.104;11.702;2023-08-31T00:14:55;94970.56;;;10.94;100.00
62103;BME280;48077;48.104;11.702;2023-08-31T00:17:19;94977.19;;;10.91;100.00
62103;BME280;48077;48.104;11.702;2023-08-31T00:19:42;94974.94;;;10.83;100.00
62103;BME280;48077;48.104;11.702;2023-08-31T00:22:05;94988.28;;;10.83;100.00
62103;BME280;48077;48.104;11.702;2023-08-31T00:24:29;94981.84;;;10.79;100.00
62103;BME280;48077;48.104;11.702;2023-08-31T00:26:53;94978.28;;;10.73;100.00
62103;BME280;48077;48.104;11.702;2023-08-31T00:29:16;94975.81;;;10.67;100.00
62103;BME280;48077;48.104;11.702;2023-08-31T00:31:39;94986.72;;;10.65;100.00
62103;BME280;48077;48.104;11.702;2023-08-31T00:34:03;94967.56;;;10.51;100.00
62103;BME280;48077;48.104;11.702;2023-08-31T00:36:27;94982.59;;;10.58;100.00
62103;BME280;48077;48.104;11.702;2023-08-31T00:38:51;94987.38;;;10.56;100.00
62103;BME280;48077;48.104;11.702;2023-08-31T00:41:14;94996.66;;;10.53;100.00
62103;BME280;48077;48.104;11.702;2023-08-31T00:43:38;94991.00;;;10.49;100.00
62103;BME280;48077;48.104;11.702;2023-08-31T00:46:01;94994.97;;;10.47;100.00
62103;BME280;48077;48.104;11.702;2023-08-31T00:48:25;94996.28;;;10.44;100.00
62103;BME280;48077;48.104;11.702;2023-08-31T00:50:50;94997.59;;;10.42;100.00
62103;BME280;48077;48.104;11.702;2023-08-31T00:53:14;94994.34;;;10.40;100.00
62103;BME280;48077;48.104;11.702;2023-08-31T00:55:38;94982.94;;;10.27;100.00
62103;BME280;48077;48.104;11.702;2023-08-31T00:58:04;94983.16;;;10.26;100.00
62103;BME280;48077;48.104;11.702;2023-08-31T01:00:36;94999.03;;;10.32;100.00
62103;BME280;48077;48.104;11.702;2023-08-31T01:03:13;94997.06;;;10.28;100.00
62103;BME280;48077;48.104;11.702;2023-08-31T01:05:39;94995.56;;;10.32;100.00
62103;BME280;48077;48.104;11.702;2023-08-31T01:13:27;94983.91;;;10.21;100.00
62103;BME280;48077;48.104;11.702;2023-08-31T01:15:56;94993.03;;;10.25;100.00
62103;BME280;48077;48.104;11.702;2023-08-31T01:18:23;94974.69;;;10.12;100.00
62103;BME280;48077;48.104;11.702;2023-08-31T01:20:58;94995.38;;;10.22;100.00
62103;BME280;48077;48.104;11.702;2023-08-31T01:26:09;94993.44;;;10.17;100.00
62103;BME280;48077;48.104;11.702;2023-08-31T01:28:33;94990.09;;;10.10;100.00
62103;BME280;48077;48.104;11.702;2023-08-31T01:30:56;95003.28;;;10.17;100.00
62103;BME280;48077;48.104;11.702;2023-08-31T01:33:19;94989.13;;;10.16;100.00
62103;BME280;48077;48.104;11.702;2023-08-31T01:35:46;94995.28;;;10.17;100.00
62103;BME280;48077;48.104;11.702;2023-08-31T01:38:14;94999.00;;;10.16;100.00
62103;BME280;48077;48.104;11.702;2023-08-31T01:41:23;94996.31;;;10.16;100.00
62103;BME280;48077;48.104;11.702;2023-08-31T01:43:28;95000.06;;;10.15;100.00
62103;BME280;48077;48.104;11.702;2023-08-31T01:45:53;94999.22;;;10.14;100.00
62103;BME280;48077;48.104;11.702;2023-08-31T01:48:17;94992.19;;;10.08;100.00
62103;BME280;48077;48.104;11.702;2023-08-31T01:50:41;95007.31;;;10.19;100.00
62103;BME280;48077;48.104;11.702;2023-08-31T01:53:04;95001.25;;;10.24;100.00
62103;BME280;48077;48.104;11.702;2023-08-31T01:55:30;94998.66;;;10.29;100.00
62103;BME280;48077;48.104;11.702;2023-08-31T01:57:53;95004.13;;;10.34;100.00
62103;BME280;48077;48.104;11.702;2023-08-31T02:00:18;95003.63;;;10.37;100.00
62103;BME280;48077;48.104;11.702;2023-08-31T02:02:42;94993.78;;;10.38;100.00
62103;BME280;48077;48.104;11.702;2023-08-31T02:05:06;94999.97;;;10.43;100.00
62103;BME280;48077;48.104;11.702;2023-08-31T02:07:29;94999.28;;;10.48;100.00
62103;BME280;48077;48.104;11.702;2023-08-31T02:09:53;95001.44;;;10.51;100.00
62103;BME280;48077;48.104;11.702;2023-08-31T02:12:16;95004.44;;;10.55;100.00
62103;BME280;48077;48.104;11.702;2023-08-31T02:14:39;95006.84;;;10.56;100.00
62103;BME280;48077;48.104;11.702;2023-08-31T02:17:03;95010.63;;;10.60;100.00
62103;BME280;48077;48.104;11.702;2023-08-31T02:19:26;95007.72;;;10.62;100.00
62103;BME280;48077;48.104;11.702;2023-08-31T02:21:49;95014.13;;;10.61;100.00
62103;BME280;48077;48.104;11.702;2023-08-31T02:24:13;95010.63;;;10.60;100.00
62103;BME280;48077;48.104;11.702;2023-08-31T02:26:36;95021.94;;;10.67;100.00
62103;BME280;48077;48.104;11.702;2023-08-31T02:29:03;95026.78;;;10.70;100.00
62103;BME280;48077;48.104;11.702;2023-08-31T02:31:26;95023.41;;;10.75;100.00
62103;BME280;48077;48.104;11.702;2023-08-31T02:33:50;95038.09;;;10.78;100.00
62103;BME280;48077;48.104;11.702;2023-08-31T02:36:13;95041.91;;;10.82;100.00
62103;BME280;48077;48.104;11.702;2023-08-31T02:38:37;95050.75;;;10.87;100.00
62103;BME280;48077;48.104;11.702;2023-08-31T02:41:00;95057.78;;;10.93;100.00
62103;BME280;48077;48.104;11.702;2023-08-31T02:43:24;95072.53;;;10.96;100.00
62103;BME280;48077;48.104;11.702;2023-08-31T02:45:48;95078.16;;;11.00;100.00
62103;BME280;48077;48.104;11.702;2023-08-31T02:48:13;95079.84;;;11.06;100.00
62103;BME280;48077;48.104;11.702;2023-08-31T02:50:36;95087.13;;;11.10;100.00
62103;BME280;48077;48.104;11.702;2023-08-31T02:53:01;95076.19;;;11.12;100.00
62103;BME280;48077;48.104;11.702;2023-08-31T02:55:24;95081.84;;;11.16;100.00
62103;BME280;48077;48.104;11.702;2023-08-31T02:57:47;95085.31;;;11.16;100.00
62103;BME280;48077;48.104;11.702;2023-08-31T03:00:11;95073.47;;;11.07;100.00
62103;BME280;48077;48.104;11.702;2023-08-31T03:02:36;95082.97;;;11.20;100.00
62103;BME280;48077;48.104;11.702;2023-08-31T03:04:59;95081.91;;;11.21;100.00
62103;BME280;48077;48.104;11.702;2023-08-31T03:07:24;95077.41;;;11.21;100.00
62103;BME280;48077;48.104;11.702;2023-08-31T03:09:48;95069.31;;;11.16;100.00
62103;BME280;48077;48.104;11.702;2023-08-31T03:12:12;95067.16;;;11.13;100.00
62103;BME280;48077;48.104;11.702;2023-08-31T03:14:36;95065.09;;;11.20;100.00
62103;BME280;48077;48.104;11.702;2023-08-31T03:16:59;95070.19;;;11.22;100.00
62103;BME280;48077;48.104;11.702;2023-08-31T03:19:23;95066.47;;;11.23;100.00
62103;BME280;48077;48.104;11.702;2023-08-31T03:21:46;95058.63;;;11.16;100.00
62103;BME280;48077;48.104;11.702;2023-08-31T03:24:09;95073.44;;;11.24;100.00
62103;BME280;48077;48.104;11.702;2023-08-31T03:26:33;95076.97;;;11.29;100.00
62103;BME280;48077;48.104;11.702;2023-08-31T03:28:57;95084.16;;;11.29;100.00
62103;BME280;48077;48.104;11.702;2023-08-31T03:31:21;95065.91;;;11.21;100.00
62103;BME280;48077;48.104;11.702;2023-08-31T03:33:44;95086.84;;;11.29;100.00
62103;BME280;48077;48.104;11.702;2023-08-31T03:36:07;95087.66;;;11.29;100.00
62103;BME280;48077;48.104;11.702;2023-08-31T03:38:31;95092.16;;;11.29;100.00
62103;BME280;48077;48.104;11.702;2023-08-31T03:40:58;95086.03;;;11.28;100.00
62103;BME280;48077;48.104;11.702;2023-08-31T03:43:21;95085.22;;;11.28;100.00
62103;BME280;48077;48.104;11.702;2023-08-31T03:45:45;95083.03;;;11.25;100.00
62103;BME280;48077;48.104;11.702;2023-08-31T03:48:08;95088.38;;;11.25;100.00
62103;BME280;48077;48.104;11.702;2023-08-31T03:50:31;95100.69;;;11.26;100.00
62103;BME280;48077;48.104;11.702;2023-08-31T03:52:55;95091.56;;;11.22;100.00
62103;BME280;48077;48.104;11.702;2023-08-31T03:55:18;95104.91;;;11.22;100.00
62103;BME280;48077;48.104;11.702;2023-08-31T03:57:41;95105.66;;;11.17;100.00
62103;BME280;48077;48.104;11.702;2023-08-31T04:00:05;95106.69;;;11.16;100.00
62103;BME280;48077;48.104;11.702;2023-08-31T04:02:32;95101.84;;;11.13;100.00
62103;BME280;48077;48.104;11.702;2023-08-31T04:04:57;95112.28;;;11.14;100.00
62103;BME280;48077;48.104;11.702;2023-08-31T04:07:21;95121.34;;;11.13;100.00
62103;BME280;48077;48.104;11.702;2023-08-31T04:09:46;95117.31;;;11.11;100.00
62103;BME280;48077;48.104;11.702;2023-08-31T04:12:10;95118.34;;;11.10;100.00
62103;BME280;48077;48.104;11.702;2023-08-31T04:14:33;95110.03;;;11.06;100.00
62103;BME280;48077;48.104;11.702;2023-08-31T04:16:56;95115.94;;;11.08;100.00
62103;BME280;48077;48.104;11.702;2023-08-31T04:19:20;95120.44;;;11.08;100.00
62103;BME280;48077;48.104;11.702;2023-08-31T04:21:43;95124.75;;;11.09;100.00
62103;BME280;48077;48.104;11.702;2023-08-31T04:24:07;95125.53;;;11.09;100.00
62103;BME280;48077;48.104;11.702;2023-08-31T04:26:30;95128.22;;;11.09;100.00
62103;BME280;48077;48.104;11.702;2023-08-31T04:28:54;95131.94;;;11.08;100.00
62103;BME280;48077;48.104;11.702;2023-08-31T04:31:17;95132.19;;;11.07;100.00
62103;BME280;48077;48.104;11.702;2023-08-31T04:33:40;95141.31;;;11.11;100.00
62103;BME280;48077;48.104;11.702;2023-08-31T04:36:04;95147.47;;;11.11;100.00
62103;BME280;48077;48.104;11.702;2023-08-31T04:38:28;95146.16;;;11.14;100.00
62103;BME280;48077;48.104;11.702;2023-08-31T04:40:51;95144.31;;;11.14;100.00
62103;BME280;48077;48.104;11.702;2023-08-31T04:43:17;95135.19;;;11.10;100.00
62103;BME280;48077;48.104;11.702;2023-08-31T04:45:40;95156.09;;;11.19;100.00
62103;BME280;48077;48.104;11.702;2023-08-31T04:48:04;95162.50;;;11.18;100.00
62103;BME280;48077;48.104;11.702;2023-08-31T04:50:27;95164.38;;;11.17;100.00
62103;BME280;48077;48.104;11.702;2023-08-31T04:52:50;95171.88;;;11.20;100.00
62103;BME280;48077;48.104;11.702;2023-08-31T04:55:14;95165.72;;;11.20;100.00
62103;BME280;48077;48.104;11.702;2023-08-31T04:57:37;95172.09;;;11.19;100.00
62103;BME280;48077;48.104;11.702;2023-08-31T05:00:01;95169.19;;;11.20;100.00
62103;BME280;48077;48.104;11.702;2023-08-31T05:02:24;95161.69;;;11.17;100.00
62103;BME280;48077;48.104;11.702;2023-08-31T05:04:48;95161.94;;;11.16;100.00
62103;BME280;48077;48.104;11.702;2023-08-31T05:07:11;95163.53;;;11.17;100.00
62103;BME280;48077;48.104;11.702;2023-08-31T05:09:34;95169.44;;;11.19;100.00
62103;BME280;48077;48.104;11.702;2023-08-31T05:11:58;95168.41;;;11.20;100.00
62103;BME280;48077;48.104;11.702;2023-08-31T05:14:22;95157.56;;;11.09;100.00
62103;BME280;48077;48.104;11.702;2023-08-31T05:16:45;95177.78;;;11.22;100.00
62103;BME280;48077;48.104;11.702;2023-08-31T05:19:09;95171.06;;;11.20;100.00
62103;BME280;48077;48.104;11.702;2023-08-31T05:21:32;95177.88;;;11.27;100.00
62103;BME280;48077;48.104;11.702;2023-08-31T05:23:55;95172.75;;;11.26;100.00
62103;BME280;48077;48.104;11.702;2023-08-31T05:26:19;95170.97;;;11.31;100.00
62103;BME280;48077;48.104;11.702;2023-08-31T05:28:42;95181.50;;;11.38;100.00
62103;BME280;48077;48.104;11.702;2023-08-31T05:31:06;95179.63;;;11.39;100.00
62103;BME280;48077;48.104;11.702;2023-08-31T05:33:29;95188.84;;;11.48;100.00
62103;BME280;48077;48.104;11.702;2023-08-31T05:35:57;95195.00;;;11.48;100.00
62103;BME280;48077;48.104;11.702;2023-08-31T05:38:20;95205.97;;;11.52;100.00
62103;BME280;48077;48.104;11.702;2023-08-31T05:40:43;95193.19;;;11.54;100.00
62103;BME280;48077;48.104;11.702;2023-08-31T05:43:09;95190.03;;;11.57;100.00
62103;BME280;48077;48.104;11.702;2023-08-31T05:45:33;95207.19;;;11.61;100.00
62103;BME280;48077;48.104;11.702;2023-08-31T05:47:56;95216.56;;;11.64;100.00
62103;BME280;48077;48.104;11.702;2023-08-31T05:50:20;95222.78;;;11.69;100.00
62103;BME280;48077;48.104;11.702;2023-08-31T05:52:43;95217.78;;;11.73;100.00
62103;BME280;48077;48.104;11.702;2023-08-31T05:55:07;95220.75;;;11.77;100.00
62103;BME280;48077;48.104;11.702;2023-08-31T05:57:30;95212.00;;;11.81;100.00
62103;BME280;48077;48.104;11.702;2023-08-31T05:59:54;95210.69;;;11.84;100.00
62103;BME280;48077;48.104;11.702;2023-08-31T06:02:17;95221.69;;;11.87;100.00
62103;BME280;48077;48.104;11.702;2023-08-31T06:04:40;95209.06;;;11.83;100.00
62103;BME280;48077;48.104;11.702;2023-08-31T06:07:04;95211.75;;;11.83;100.00
62103;BME280;48077;48.104;11.702;2023-08-31T06:09:27;95223.34;;;11.88;100.00
62103;BME280;48077;48.104;11.702;2023-08-31T06:11:51;95225.78;;;11.90;100.00
62103;BME280;48077;48.104;11.702;2023-08-31T06:14:14;95216.03;;;11.84;100.00
62103;BME280;48077;48.104;11.702;2023-08-31T06:16:37;95227.69;;;11.94;100.00
62103;BME280;48077;48.104;11.702;2023-08-31T06:19:01;95239.50;;;11.99;100.00
62103;BME280;48077;48.104;11.702;2023-08-31T06:21:26;95236.34;;;12.02;100.00
62103;BME280;48077;48.104;11.702;2023-08-31T06:23:49;95244.34;;;12.02;100.00
62103;BME280;48077;48.104;11.702;2023-08-31T06:26:13;95239.56;;;12.04;100.00
62103;BME280;48077;48.104;11.702;2023-08-31T06:28:36;95242.31;;;12.09;100.00
62103;BME280;48077;48.104;11.702;2023-08-31T06:31:00;95231.00;;;12.02;100.00
62103;BME280;48077;48.104;11.702;2023-08-31T06:33:25;95241.19;;;12.05;100.00
62103;BME280;48077;48.104;11.702;2023-08-31T06:35:48;95239.84;;;12.02;100.00
62103;BME280;48077;48.104;11.702;2023-08-31T06:38:14;95253.34;;;12.12;100.00
62103;BME280;48077;48.104;11.702;2023-08-31T06:40:37;95245.03;;;12.14;100.00
62103;BME280;48077;48.104;11.702;2023-08-31T06:43:01;95245.41;;;12.23;100.00
62103;BME280;48077;48.104;11.702;2023-08-31T06:45:25;95257.97;;;12.22;100.00
62103;BME280;48077;48.104;11.702;2023-08-31T06:47:48;95250.19;;;12.21;100.00
62103;BME280;48077;48.104;11.702;2023-08-31T06:50:12;95253.75;;;12.26;100.00
62103;BME280;48077;48.104;11.702;2023-08-31T06:52:35;95256.50;;;12.31;100.00
62103;BME280;48077;48.104;11.702;2023-08-31T06:54:59;95265.69;;;12.41;100.00
62103;BME280;48077;48.104;11.702;2023-08-31T06:57:24;95259.34;;;12.47;100.00
62103;BME280;48077;48.104;11.702;2023-08-31T06:59:47;95254.53;;;12.44;100.00
62103;BME280;48077;48.104;11.702;2023-08-31T07:02:11;95266.63;;;12.51;100.00
62103;BME280;48077;48.104;11.702;2023-08-31T07:04:34;95270.09;;;12.52;100.00
62103;BME280;48077;48.104;11.702;2023-08-31T07:06:58;95267.13;;;12.48;100.00
62103;BME280;48077;48.104;11.702;2023-08-31T07:09:21;95270.09;;;12.52;100.00
62103;BME280;48077;48.104;11.702;2023-08-31T07:11:44;95258.22;;;12.43;100.00
62103;BME280;48077;48.104;11.702;2023-08-31T07:14:08;95280.25;;;12.50;100.00
62103;BME280;48077;48.104;11.702;2023-08-31T07:16:31;95272.47;;;12.48;100.00
62103;BME280;48077;48.104;11.702;2023-08-31T07:18:54;95274.09;;;12.49;100.00
62103;BME280;48077;48.104;11.702;2023-08-31T07:21:18;95269.53;;;12.50;100.00
62103;BME280;48077;48.104;11.702;2023-08-31T07:23:41;95272.53;;;12.53;100.00
62103;BME280;48077;48.104;11.702;2023-08-31T07:26:04;95269.84;;;12.53;100.00
62103;BME280;48077;48.104;11.702;2023-08-31T07:28:28;95281.91;;;12.56;100.00
62103;BME280;48077;48.104;11.702;2023-08-31T07:31:04;95277.63;;;12.55;100.00
62103;BME280;48077;48.104;11.702;2023-08-31T07:33:28;95282.59;;;12.68;100.00
62103;BME280;48077;48.104;11.702;2023-08-31T07:35:51;95288.13;;;12.84;100.00
62103;BME280;48077;48.104;11.702;2023-08-31T07:38:14;95294.16;;;12.96;100.00
62103;BME280;48077;48.104;11.702;2023-08-31T07:40:38;95296.38;;;13.04;100.00
62103;BME280;48077;48.104;11.702;2023-08-31T07:43:01;95299.59;;;13.06;100.00
62103;BME280;48077;48.104;11.702;2023-08-31T07:45:25;95307.13;;;13.09;100.00
62103;BME280;48077;48.104;11.702;2023-08-31T07:47:49;95309.56;;;13.11;100.00
62103;BME280;48077;48.104;11.702;2023-08-31T07:50:12;95315.00;;;13.21;100.00
62103;BME280;48077;48.104;11.702;2023-08-31T07:52:37;95308.31;;;13.24;100.00
62103;BME280;48077;48.104;11.702;2023-08-31T07:55:01;95317.41;;;13.23;100.00
62103;BME280;48077;48.104;11.702;2023-08-31T07:57:25;95317.16;;;13.24;100.00
62103;BME280;48077;48.104;11.702;2023-08-31T07:59:48;95298.06;;;13.15;100.00
62103;BME280;48077;48.104;11.702;2023-08-31T08:02:11;95315.38;;;13.30;100.00
62103;BME280;48077;48.104;11.702;2023-08-31T08:04:35;95303.28;;;13.27;100.00
62103;BME280;48077;48.104;11.702;2023-08-31T08:06:58;95313.28;;;13.37;100.00
62103;BME280;48077;48.104;11.702;2023-08-31T08:09:21;95317.38;;;13.45;100.00
62103;BME280;48077;48.104;11.702;2023-08-31T08:11:45;95302.88;;;13.41;100.00
62103;BME280;48077;48.104;11.702;2023-08-31T08:14:08;95271.63;;;13.24;100.00
62103;BME280;48077;48.104;11.702;2023-08-31T08:16:32;95308.63;;;13.54;100.00
62103;BME280;48077;48.104;11.702;2023-08-31T08:18:55;95299.28;;;13.62;100.00
62103;BME280;48077;48.104;11.702;2023-08-31T08:21:18;95302.88;;;13.73;100.00
62103;BME280;48077;48.104;11.702;2023-08-31T08:23:42;95315.06;;;13.91;100.00
62103;BME280;48077;48.104;11.702;2023-08-31T08:26:05;95325.00;;;13.95;100.00
62103;BME280;48077;48.104;11.702;2023-08-31T08:28:28;95327.75;;;14.06;100.00
62103;BME280;48077;48.104;11.702;2023-08-31T08:30:52;95319.22;;;14.09;100.00
62103;BME280;48077;48.104;11.702;2023-08-31T08:33:15;95340.75;;;14.24;100.00
62103;BME280;48077;48.104;11.702;2023-08-31T08:35:38;95349.09;;;14.33;100.00
62103;BME280;48077;48.104;11.702;2023-08-31T08:38:02;95352.06;;;14.31;100.00
62103;BME280;48077;48.104;11.702;2023-08-31T08:40:25;95343.97;;;14.26;100.00
62103;BME280;48077;48.104;11.702;2023-08-31T08:42:49;95352.56;;;14.28;100.00
62103;BME280;48077;48.104;11.702;2023-08-31T08:45:16;95331.91;;;14.24;100.00
62103;BME280;48077;48.104;11.702;2023-08-31T08:47:39;95341.34;;;14.31;100.00
62103;BME280;48077;48.104;11.702;2023-08-31T08:50:04;95355.88;;;14.46;100.00
62103;BME280;48077;48.104;11.702;2023-08-31T08:52:28;95347.88;;;14.51;100.00
62103;BME280;48077;48.104;11.702;2023-08-31T08:54:52;95349.47;;;14.47;100.00
62103;BME280;48077;48.104;11.702;2023-08-31T08:57:16;95346.47;;;14.43;100.00
62103;BME280;48077;48.104;11.702;2023-08-31T08:59:39;95337.09;;;14.41;100.00
62103;BME280;48077;48.104;11.702;2023-08-31T09:02:03;95341.94;;;14.44;100.00
62103;BME280;48077;48.104;11.702;2023-08-31T09:04:29;95338.47;;;14.48;100.00
62103;BME280;48077;48.104;11.702;2023-08-31T09:06:53;95344.72;;;14.59;100.00
62103;BME280;48077;48.104;11.702;2023-08-31T09:09:17;95348.56;;;14.73;100.00
62103;BME280;48077;48.104;11.702;2023-08-31T09:11:40;95349.94;;;14.86;100.00
62103;BME280;48077;48.104;11.702;2023-08-31T09:14:17;95358.03;;;14.96;100.00
62103;BME280;48077;48.104;11.702;2023-08-31T09:16:44;95366.38;;;15.05;100.00
62103;BME280;48077;48.104;11.702;2023-08-31T09:19:21;95359.97;;;15.11;100.00
62103;BME280;48077;48.104;11.702;2023-08-31T09:21:47;95359.94;;;15.06;100.00
62103;BME280;48077;48.104;11.702;2023-08-31T09:24:10;95352.94;;;15.05;100.00
62103;BME280;48077;48.104;11.702;2023-08-31T09:26:37;95369.34;;;15.14;100.00
62103;BME280;48077;48.104;11.702;2023-08-31T09:29:01;95362.63;;;15.06;100.00
62103;BME280;48077;48.104;11.702;2023-08-31T09:31:31;95363.91;;;14.93;100.00
62103;BME280;48077;48.104;11.702;2023-08-31T09:33:54;95372.50;;;14.90;100.00
62103;BME280;48077;48.104;11.702;2023-08-31T09:36:20;95366.56;;;14.83;100.00
62103;BME280;48077;48.104;11.702;2023-08-31T09:38:44;95368.44;;;14.77;100.00
62103;BME280;48077;48.104;11.702;2023-08-31T09:41:07;95361.97;;;14.73;100.00
62103;BME280;48077;48.104;11.702;2023-08-31T09:43:31;95367.09;;;14.75;100.00
62103;BME280;48077;48.104;11.702;2023-08-31T09:45:54;95367.91;;;14.81;100.00
62103;BME280;48077;48.104;11.702;2023-08-31T09:48:18;95364.94;;;14.82;100.00
62103;BME280;48077;48.104;11.702;2023-08-31T09:50:46;95366.59;;;14.88;100.00
62103;BME280;48077;48.104;11.702;2023-08-31T09:53:11;95364.47;;;14.95;100.00
62103;BME280;48077;48.104;11.702;2023-08-31T09:55:36;95370.16;;;15.04;100.00
62103;BME280;48077;48.104;11.702;2023-08-31T09:58:02;95362.09;;;15.14;100.00
62103;BME280;48077;48.104;11.702;2023-08-31T10:00:27;95336.09;;;15.30;100.00
62103;BME280;48077;48.104;11.702;2023-08-31T10:02:53;95353.38;;;15.75;99.06
62103;BME280;48077;48.104;11.702;2023-08-31T10:05:19;95359.53;;;16.22;95.02
62103;BME280;48077;48.104;11.702;2023-08-31T10:07:43;95349.84;;;16.26;93.71
62103;BME280;48077;48.104;11.702;2023-08-31T10:10:07;95361.38;;;16.42;94.41
62103;BME280;48077;48.104;11.702;2023-08-31T10:12:31;95361.63;;;16.46;93.66
62103;BME280;48077;48.104;11.702;2023-08-31T10:14:55;95355.69;;;16.54;90.69
62103;BME280;48077;48.104;11.702;2023-08-31T10:17:20;95353.84;;;16.39;93.71
62103;BME280;48077;48.104;11.702;2023-08-31T10:19:44;95341.25;;;16.09;94.73
62103;BME280;48077;48.104;11.702;2023-08-31T10:22:07;95346.66;;;15.98;93.39
62103;BME280;48077;48.104;11.702;2023-08-31T10:24:58;95350.41;;;15.92;92.51
62103;BME280;48077;48.104;11.702;2023-08-31T10:27:23;95347.72;;;15.82;95.07
62103;BME280;48077;48.104;11.702;2023-08-31T10:29:46;95335.91;;;15.73;94.83
62103;BME280;48077;48.104;11.702;2023-08-31T10:32:10;95334.50;;;15.70;96.29
62103;BME280;48077;48.104;11.702;2023-08-31T10:34:36;95344.19;;;15.71;96.80
62103;BME280;48077;48.104;11.702;2023-08-31T10:37:19;95337.72;;;15.62;96.55
62103;BME280;48077;48.104;11.702;2023-08-31T10:39:43;95337.47;;;15.64;97.25
62103;BME280;48077;48.104;11.702;2023-08-31T10:42:06;95348.25;;;15.74;94.69
62103;BME280;48077;48.104;11.702;2023-08-31T10:44:30;95347.41;;;15.68;96.09
62103;BME280;48077;48.104;11.702;2023-08-31T10:46:54;95356.84;;;15.61;96.51
62103;BME280;48077;48.104;11.702;2023-08-31T10:49:19;95353.59;;;15.48;97.55
62103;BME280;48077;48.104;11.702;2023-08-31T10:51:45;95357.34;;;15.42;95.13
62103;BME280;48077;48.104;11.702;2023-08-31T10:54:10;95346.03;;;15.35;93.78
62103;BME280;48077;48.104;11.702;2023-08-31T10:56:33;95325.88;;;15.27;94.23
62103;BME280;48077;48.104;11.702;2023-08-31T10:58:58;95338.50;;;15.32;96.06
62103;BME280;48077;48.104;11.702;2023-08-31T11:02:13;95342.00;;;15.32;96.80
62103;BME280;48077;48.104;11.702;2023-08-31T11:04:30;95345.50;;;15.28;98.72
62103;BME280;48077;48.104;11.702;2023-08-31T11:09:36;95351.09;;;15.16;100.00
62103;BME280;48077;48.104;11.702;2023-08-31T11:11:59;95345.97;;;15.04;100.00
62103;BME280;48077;48.104;11.702;2023-08-31T11:14:23;95331.66;;;14.78;100.00
62103;BME280;48077;48.104;11.702;2023-08-31T11:16:46;95347.47;;;14.74;100.00
62103;BME280;48077;48.104;11.702;2023-08-31T11:19:09;95344.22;;;14.67;100.00
62103;BME280;48077;48.104;11.702;2023-08-31T11:21:33;95346.38;;;14.65;100.00
62103;BME280;48077;48.104;11.702;2023-08-31T11:23:57;95339.38;;;14.64;100.00
62103;BME280;48077;48.104;11.702;2023-08-31T11:26:21;95350.16;;;14.74;100.00
62103;BME280;48077;48.104;11.702;2023-08-31T11:28:45;95361.97;;;14.73;100.00
62103;BME280;48077;48.104;11.702;2023-08-31T11:31:09;95358.19;;;14.69;100.00
62103;BME280;48077;48.104;11.702;2023-08-31T11:33:32;95349.84;;;14.61;100.00
62103;BME280;48077;48.104;11.702;2023-08-31T11:35:57;95355.22;;;14.61;100.00
62103;BME280;48077;48.104;11.702;2023-08-31T11:38:21;95355.47;;;14.59;100.00
62103;BME280;48077;48.104;11.702;2023-08-31T11:40:45;95358.44;;;14.63;100.00
62103;BME280;48077;48.104;11.702;2023-08-31T11:43:08;95361.84;;;14.53;100.00
62103;BME280;48077;48.104;11.702;2023-08-31T11:45:32;95370.69;;;14.48;100.00
62103;BME280;48077;48.104;11.702;2023-08-31T11:47:56;95375.72;;;14.40;100.00
62103;BME280;48077;48.104;11.702;2023-08-31T11:50:20;95371.91;;;14.78;100.00
62103;BME280;48077;48.104;11.702;2023-08-31T11:52:44;95380.28;;;14.87;100.00
62103;BME280;48077;48.104;11.702;2023-08-31T11:55:12;95382.69;;;14.88;100.00
62103;BME280;48077;48.104;11.702;2023-08-31T11:57:35;95380.13;;;15.24;100.00
62103;BME280;48077;48.104;11.702;2023-08-31T11:59:59;95379.66;;;15.68;100.00
62103;BME280;48077;48.104;11.702;2023-08-31T12:02:22;95382.06;;;16.57;100.00
62103;BME280;48077;48.104;11.702;2023-08-31T12:04:46;95377.97;;;16.85;100.00
62103;BME280;48077;48.104;11.702;2023-08-31T12:07:09;95367.16;;;17.45;97.96
62103;BME280;48077;48.104;11.702;2023-08-31T12:09:36;95348.44;;;18.04;98.11
62103;BME280;48077;48.104;11.702;2023-08-31T12:11:59;95353.25;;;18.65;90.78
62103;BME280;48077;48.104;11.702;2023-08-31T12:14:27;95373.59;;;19.06;83.37
62103;BME280;48077;48.104;11.702;2023-08-31T12:16:59;95373.47;;;19.16;83.55
62103;BME280;48077;48.104;11.702;2023-08-31T12:19:26;95360.97;;;18.18;83.78
62103;BME280;48077;48.104;11.702;2023-08-31T12:21:50;95371.97;;;17.53;83.64
62103;BME280;48077;48.104;11.702;2023-08-31T12:24:14;95369.44;;;17.23;86.79
62103;BME280;48077;48.104;11.702;2023-08-31T12:26:40;95374.41;;;17.50;85.63
62103;BME280;48077;48.104;11.702;2023-08-31T12:29:03;95374.06;;;18.35;81.07
62103;BME280;48077;48.104;11.702;2023-08-31T12:31:30;95371.88;;;18.91;75.23
62103;BME280;48077;48.104;11.702;2023-08-31T12:33:54;95376.72;;;19.37;74.83
62103;BME280;48077;48.104;11.702;2023-08-31T12:36:17;95368.16;;;19.68;71.09
62103;BME280;48077;48.104;11.702;2023-08-31T12:38:41;95366.03;;;20.02;72.08
62103;BME280;48077;48.104;11.702;2023-08-31T12:41:04;95382.59;;;20.48;74.01